Time;durP1;ratioP1;P1;durP2;ratioP2;P2;SDS_P1;SDS_P2;PMS_P1;PMS_P2;Temp;Humidity;BMP_temperature;BMP_pressure;BME280_temperature;BME280_humidity;BME280_pressure;Samples;Min_cycle;Max_cycle;Signal;HPM_P1;HPM_P2
2023/06/08 00:00:11;;;;;;;13.18;7.20;;;;;;;21.42;55.69;100386.34;4157328;28;20124;-68
2023/06/08 00:02:15;;;;;;;9.70;6.93;;;;;;;21.42;55.56;100389.00;4152877;28;20048;-68
2023/06/08 00:04:18;;;;;;;12.40;7.05;;;;;;;21.39;55.50;100391.75;4137231;28;20038;-68
2023/06/08 00:06:23;;;;;;;8.20;6.55;;;;;;;21.39;55.44;100389.09;4158044;28;20410;-68
2023/06/08 00:08:26;;;;;;;9.52;6.68;;;;;;;21.37;55.98;100389.16;4158424;28;20115;-68
2023/06/08 00:10:28;;;;;;;8.85;7.15;;;;;;;21.31;55.60;100384.06;4126759;28;20046;-68
2023/06/08 00:12:31;;;;;;;8.80;6.70;;;;;;;21.30;55.81;100389.41;4158127;28;20447;-68
2023/06/08 00:14:35;;;;;;;10.68;7.85;;;;;;;21.27;55.67;100393.00;4158149;28;20039;-68
2023/06/08 00:16:42;;;;;;;9.88;7.15;;;;;;;21.26;55.61;100381.56;4156060;28;20045;-68
2023/06/08 00:18:45;;;;;;;8.85;7.40;;;;;;;21.27;55.94;100378.03;4137622;28;20041;-68
2023/06/08 00:20:47;;;;;;;9.15;6.90;;;;;;;21.26;56.27;100375.41;4140083;28;20046;-68
2023/06/08 00:22:51;;;;;;;10.15;7.78;;;;;;;21.23;56.28;100384.31;4158795;28;20045;-68
2023/06/08 00:24:54;;;;;;;8.32;7.18;;;;;;;21.21;56.03;100372.91;4155118;28;20543;-68
2023/06/08 00:26:57;;;;;;;12.13;7.80;;;;;;;21.22;55.79;100384.38;4138677;28;20042;-68
2023/06/08 00:29:00;;;;;;;9.13;7.38;;;;;;;21.18;55.85;100385.38;4139402;28;20529;-68
2023/06/08 00:31:03;;;;;;;9.63;7.75;;;;;;;21.15;55.81;100378.38;4140280;28;20038;-68
2023/06/08 00:33:07;;;;;;;9.63;7.75;;;;;;;21.14;55.76;100376.66;4153345;28;20153;-68
2023/06/08 00:35:13;;;;;;;9.00;7.68;;;;;;;21.17;55.34;100371.25;4158543;28;20037;-68
2023/06/08 00:37:16;;;;;;;11.45;7.97;;;;;;;21.12;55.43;100373.19;4120185;28;20097;-68
2023/06/08 00:39:18;;;;;;;11.13;7.10;;;;;;;21.04;55.55;100369.91;4133020;28;20503;-68
2023/06/08 00:41:21;;;;;;;9.68;7.13;;;;;;;21.03;55.51;100370.84;4139190;28;20136;-68
2023/06/08 00:43:24;;;;;;;9.32;7.35;;;;;;;20.99;55.67;100371.84;4136376;28;20081;-68
2023/06/08 00:45:27;;;;;;;8.35;6.80;;;;;;;20.91;55.85;100362.38;4117381;28;20055;-68
2023/06/08 00:47:30;;;;;;;9.18;8.18;;;;;;;20.92;56.11;100369.41;4136275;28;20042;-68
2023/06/08 00:49:36;;;;;;;12.68;7.80;;;;;;;20.93;55.80;100378.19;4154485;28;20041;-68
2023/06/08 00:51:41;;;;;;;11.02;6.97;;;;;;;20.87;56.11;100368.66;4149642;28;20526;-68
2023/06/08 00:53:46;;;;;;;17.27;8.77;;;;;;;20.89;56.16;100364.19;4137101;28;20055;-68
2023/06/08 00:55:51;;;;;;;13.55;6.95;;;;;;;20.84;56.29;100376.69;4134828;28;20042;-68
2023/06/08 00:57:55;;;;;;;10.88;7.25;;;;;;;20.82;56.46;100375.00;4119676;28;20500;-68
2023/06/08 01:00:04;;;;;;;10.68;7.65;;;;;;;20.85;56.26;100375.78;4125031;28;20042;-68
2023/06/08 01:02:07;;;;;;;14.15;8.00;;;;;;;20.86;56.13;100363.44;4136704;28;20088;-68
2023/06/08 01:04:14;;;;;;;9.00;7.97;;;;;;;20.79;56.16;100370.66;4140190;28;20037;-68
2023/06/08 01:06:20;;;;;;;12.77;7.80;;;;;;;20.83;56.41;100372.31;4142419;28;20050;-68
2023/06/08 01:08:33;;;;;;;8.63;6.93;;;;;;;20.78;56.13;100368.06;4125513;28;20048;-68
2023/06/08 01:10:43;;;;;;;11.02;6.90;;;;;;;20.73;56.17;100369.09;4154973;28;20045;-68
2023/06/08 01:12:52;;;;;;;11.27;7.85;;;;;;;20.71;56.48;100370.03;4134653;28;20044;-68
2023/06/08 01:15:06;;;;;;;9.63;7.30;;;;;;;20.73;56.36;100370.84;4140050;28;20034;-68
2023/06/08 01:17:12;;;;;;;9.45;6.70;;;;;;;20.64;56.32;100371.09;4125101;28;20082;-67
2023/06/08 01:19:23;;;;;;;10.25;7.35;;;;;;;20.65;56.49;100378.97;4121714;28;20523;-68
2023/06/08 01:21:48;;;;;;;12.27;8.07;;;;;;;20.66;56.38;100379.81;4135028;28;20124;-68
2023/06/08 01:24:05;;;;;;;9.15;7.07;;;;;;;20.66;56.38;100374.53;4135637;28;20034;-67
2023/06/08 01:26:10;;;;;;;8.82;6.80;;;;;;;20.61;56.50;100381.75;4133552;28;21164;-68
2023/06/08 01:28:13;;;;;;;10.73;6.90;;;;;;;20.56;56.73;100380.09;4133652;28;20053;-68
2023/06/08 01:30:16;;;;;;;9.13;6.75;;;;;;;20.58;56.64;100383.53;4141693;28;20067;-68
2023/06/08 01:32:19;;;;;;;10.90;6.90;;;;;;;20.56;56.72;100384.53;4139668;28;20045;-68
2023/06/08 01:34:22;;;;;;;13.70;8.17;;;;;;;20.58;56.60;100385.34;4136783;28;20109;-68
2023/06/08 01:36:29;;;;;;;9.57;7.80;;;;;;;20.61;56.56;100381.75;4137570;28;20041;-68
2023/06/08 01:38:40;;;;;;;12.90;7.60;;;;;;;20.52;56.74;100385.50;4148042;28;20065;-68
2023/06/08 01:40:49;;;;;;;10.25;7.80;;;;;;;20.57;56.59;100380.94;4141997;28;20072;-67
2023/06/08 01:42:54;;;;;;;11.18;8.30;;;;;;;20.53;56.76;100380.19;4138646;28;20125;-68
2023/06/08 01:45:00;;;;;;;10.73;7.53;;;;;;;20.52;56.38;100377.59;4152656;28;20402;-68
2023/06/08 01:47:05;;;;;;;12.90;9.00;;;;;;;20.46;56.88;100376.00;4149558;28;20038;-68
2023/06/08 01:49:10;;;;;;;10.27;7.57;;;;;;;20.37;56.97;100373.59;4133858;28;20607;-68
2023/06/08 01:51:14;;;;;;;9.27;6.88;;;;;;;20.32;57.05;100378.13;4123240;28;20137;-67
2023/06/08 01:53:17;;;;;;;;;;;;;;;20.28;57.00;100377.38;4122027;28;20053;-68
2023/06/08 01:55:22;;;;;;;12.70;7.22;;;;;;;20.23;57.19;100377.47;4154539;28;20015;-68
2023/06/08 01:57:26;;;;;;;9.65;7.80;;;;;;;20.22;57.21;100375.75;4144393;28;20566;-68
2023/06/08 01:59:29;;;;;;;10.32;7.70;;;;;;;20.18;57.63;100374.09;4131455;28;20033;-67
2023/06/08 02:01:51;;;;;;;13.10;8.30;;;;;;;20.22;57.30;100380.16;4138327;28;20174;-67
2023/06/08 02:03:54;;;;;;;12.68;7.47;;;;;;;20.17;57.44;100367.09;4139125;28;20061;-67
2023/06/08 02:05:57;;;;;;;10.75;7.75;;;;;;;20.13;57.54;100367.22;4139306;28;20463;-68
2023/06/08 02:07:59;;;;;;;9.65;6.93;;;;;;;20.11;57.77;100369.03;4158800;28;20052;-67
2023/06/08 02:10:03;;;;;;;12.52;6.47;;;;;;;20.08;57.62;100367.34;4142181;28;20348;-67
2023/06/08 02:12:09;;;;;;;13.38;7.75;;;;;;;20.12;57.76;100361.09;4137389;28;20048;-67
2023/06/08 02:14:14;;;;;;;10.00;8.18;;;;;;;20.08;57.60;100367.34;4135546;28;20062;-68
2023/06/08 02:16:18;;;;;;;10.82;8.45;;;;;;;20.12;57.56;100370.75;4142277;28;20038;-67
2023/06/08 02:18:21;;;;;;;;;;;;;;;20.04;57.85;100370.97;4141442;28;20426;-67
2023/06/08 02:20:26;;;;;;;9.98;7.32;;;;;;;19.95;57.89;100368.59;4146549;28;20370;-67
2023/06/08 02:22:29;;;;;;;10.45;6.63;;;;;;;20.00;58.05;100374.59;4160124;28;20305;-67
2023/06/08 02:24:32;;;;;;;10.63;7.57;;;;;;;20.01;58.10;100376.34;4145640;28;20141;-67
2023/06/08 02:26:35;;;;;;;9.65;6.85;;;;;;;19.86;58.16;100372.31;4145424;28;20084;-67
2023/06/08 02:28:39;;;;;;;10.98;6.55;;;;;;;19.77;58.39;100375.16;4138834;28;20515;-67
2023/06/08 02:30:44;;;;;;;8.77;6.65;;;;;;;19.78;58.46;100364.59;4134062;28;20132;-67
2023/06/08 02:32:53;;;;;;;8.48;7.18;;;;;;;19.82;58.94;100371.53;4161193;28;20372;-67
2023/06/08 02:34:56;;;;;;;11.80;7.40;;;;;;;19.84;58.42;100374.13;4154927;28;20055;-66
2023/06/08 02:37:02;;;;;;;11.10;7.00;;;;;;;19.84;58.42;100375.00;4136337;28;20050;-67
2023/06/08 02:39:04;;;;;;;10.98;7.00;;;;;;;19.79;58.52;100376.88;4139355;28;20073;-67
2023/06/08 02:41:07;;;;;;;13.95;7.40;;;;;;;19.78;58.32;100377.78;4117177;28;20042;-66
2023/06/08 02:43:15;;;;;;;8.63;7.00;;;;;;;19.72;58.58;100364.72;4158597;28;20469;-67
2023/06/08 02:45:20;;;;;;;9.13;7.20;;;;;;;19.76;58.79;100379.56;4147237;28;20038;-67
2023/06/08 02:47:25;;;;;;;11.65;7.60;;;;;;;19.67;58.69;100383.28;4138871;28;20072;-67
2023/06/08 02:49:28;;;;;;;;;;;;;;;19.60;59.29;100376.44;4145807;28;20125;-66
2023/06/08 02:51:31;;;;;;;11.25;7.95;;;;;;;19.59;59.10;100376.47;4145801;28;19921;-67
2023/06/08 02:53:35;;;;;;;9.98;7.22;;;;;;;19.56;59.13;100373.91;4122981;28;20129;-66
2023/06/08 02:55:38;;;;;;;12.82;8.25;;;;;;;19.57;59.11;100365.13;4146182;28;20041;-67
2023/06/08 02:57:48;;;;;;;10.13;7.78;;;;;;;19.51;59.14;100364.34;4145490;28;20515;-67
2023/06/08 02:59:53;;;;;;;11.18;7.90;;;;;;;19.53;59.24;100365.16;4139161;28;21588;-67
2023/06/08 03:01:56;;;;;;;11.63;7.32;;;;;;;19.51;59.21;100360.84;4121709;28;20519;-66
2023/06/08 03:04:07;;;;;;;12.20;7.63;;;;;;;19.49;59.54;100363.53;4150490;28;20060;-67
2023/06/08 03:06:17;;;;;;;10.65;7.70;;;;;;;19.51;59.22;100364.34;4155096;28;20045;-67
2023/06/08 03:08:22;;;;;;;11.65;7.18;;;;;;;19.50;59.37;100365.25;4143686;28;20081;-67
2023/06/08 03:10:26;;;;;;;12.15;7.97;;;;;;;19.49;59.60;100368.81;4138692;28;20515;-67
2023/06/08 03:12:30;;;;;;;13.32;8.23;;;;;;;19.49;59.59;100362.63;4142559;28;20049;-67
2023/06/08 03:14:35;;;;;;;15.52;7.55;;;;;;;19.47;59.50;100367.09;4138301;28;20045;-67
2023/06/08 03:16:38;;;;;;;10.38;6.97;;;;;;;19.50;59.10;100365.25;4146070;28;20048;-67
2023/06/08 03:18:42;;;;;;;10.18;6.70;;;;;;;19.53;59.34;100367.78;4135458;28;20092;-67
2023/06/08 03:20:51;;;;;;;10.30;7.95;;;;;;;19.54;59.31;100372.19;4136520;28;20038;-67
2023/06/08 03:22:54;;;;;;;8.60;6.85;;;;;;;19.51;59.00;100366.97;4142860;28;20044;-67
2023/06/08 03:25:00;;;;;;;9.95;6.68;;;;;;;19.49;59.46;100357.38;4141416;28;20085;-67
2023/06/08 03:27:06;;;;;;;8.68;7.40;;;;;;;19.45;59.51;100367.13;4144135;28;20045;-67
2023/06/08 03:29:09;;;;;;;8.98;7.25;;;;;;;19.45;59.09;100367.13;4135981;28;20039;-67
2023/06/08 03:31:14;;;;;;;10.60;7.22;;;;;;;19.44;59.47;100365.41;4156678;28;20096;-67
2023/06/08 03:33:22;;;;;;;10.73;6.53;;;;;;;19.41;59.67;100360.19;4157131;28;20048;-67
2023/06/08 03:35:30;;;;;;;10.10;7.28;;;;;;;19.42;59.79;100366.31;4154183;28;20512;-68
2023/06/08 03:38:00;;;;;;;8.98;6.88;;;;;;;19.38;60.07;100370.81;4129035;28;20053;-68
2023/06/08 03:40:06;;;;;;;11.50;7.72;;;;;;;19.37;60.18;100371.72;4134616;28;20039;-68
2023/06/08 03:42:09;;;;;;;;;;;;;;;19.30;60.11;100372.75;4152572;28;20033;-68
2023/06/08 03:44:16;;;;;;;8.93;7.10;;;;;;;19.33;59.90;100378.84;4160398;28;19925;-68
2023/06/08 03:46:19;;;;;;;9.93;6.80;;;;;;;19.34;59.79;100374.44;4132917;28;20129;-68
2023/06/08 03:48:23;;;;;;;10.07;7.35;;;;;;;19.43;59.57;100375.97;4134828;28;20038;-68
2023/06/08 03:50:26;;;;;;;10.50;6.97;;;;;;;19.42;59.69;100375.13;4124872;28;20038;-68
2023/06/08 03:52:30;;;;;;;9.75;7.78;;;;;;;19.48;59.26;100382.03;4140732;28;20042;-68
2023/06/08 03:54:34;;;;;;;15.30;6.82;;;;;;;19.40;59.50;100376.91;4139611;28;20077;-68
2023/06/08 03:56:37;;;;;;;9.93;6.70;;;;;;;19.37;60.58;100384.91;4127244;28;20423;-68
2023/06/08 03:58:41;;;;;;;8.57;6.07;;;;;;;19.36;60.59;100384.03;4147859;28;20038;-68
2023/06/08 04:00:45;;;;;;;8.15;6.20;;;;;;;19.36;61.03;100388.44;4137924;28;20089;-68
2023/06/08 04:02:50;;;;;;;11.90;7.28;;;;;;;19.39;60.36;100382.22;4154568;28;20041;-68
2023/06/08 04:04:59;;;;;;;9.27;6.78;;;;;;;19.39;60.65;100387.50;4139826;28;20045;-68
2023/06/08 04:07:03;;;;;;;10.43;6.60;;;;;;;19.41;60.40;100388.34;4136693;28;20624;-68
2023/06/08 04:09:06;;;;;;;11.95;6.57;;;;;;;19.42;59.64;100383.03;4138058;28;20057;-68
2023/06/08 04:11:11;;;;;;;9.10;7.25;;;;;;;19.41;59.49;100386.56;4122386;28;20125;-68
2023/06/08 04:13:14;;;;;;;9.95;6.80;;;;;;;19.39;59.25;100385.75;4136821;28;20042;-68
2023/06/08 04:15:18;;;;;;;11.43;8.07;;;;;;;19.40;59.22;100378.69;4132467;28;20105;-68
2023/06/08 04:17:21;;;;;;;12.00;8.25;;;;;;;19.38;59.40;100381.38;4136381;28;20485;-67
2023/06/08 04:19:27;;;;;;;9.30;7.38;;;;;;;19.40;59.23;100384.81;4142397;28;20068;-68
2023/06/08 04:21:30;;;;;;;12.98;7.15;;;;;;;19.43;58.99;100381.25;4155747;28;20132;-68
2023/06/08 04:23:39;;;;;;;11.80;7.95;;;;;;;19.48;59.04;100387.28;4140479;28;20526;-68
2023/06/08 04:25:44;;;;;;;10.85;7.07;;;;;;;19.43;58.79;100384.75;4141815;28;20081;-68
2023/06/08 04:27:48;;;;;;;11.00;7.88;;;;;;;19.49;59.10;100383.72;4138640;28;20041;-68
2023/06/08 04:29:52;;;;;;;8.90;6.85;;;;;;;19.53;59.03;100386.25;4124014;28;20130;-68
2023/06/08 04:31:55;;;;;;;11.35;6.93;;;;;;;19.54;58.20;100382.72;4137105;28;20045;-67
2023/06/08 04:33:58;;;;;;;9.88;7.15;;;;;;;19.56;58.73;100382.69;4125689;28;20042;-68
2023/06/08 04:36:01;;;;;;;11.40;6.88;;;;;;;19.57;58.63;100381.78;4134899;28;20026;-67
2023/06/08 04:38:10;;;;;;;10.40;7.95;;;;;;;19.62;58.77;100381.69;4152118;28;20068;-67
2023/06/08 04:40:13;;;;;;;12.07;7.90;;;;;;;19.65;58.43;100378.97;4120020;28;20054;-67
2023/06/08 04:42:17;;;;;;;10.85;7.60;;;;;;;19.68;58.20;100378.88;4138555;28;20049;-68
2023/06/08 04:44:22;;;;;;;10.40;7.78;;;;;;;19.71;58.07;100381.44;4140969;28;20068;-68
2023/06/08 04:46:28;;;;;;;9.63;7.18;;;;;;;19.68;57.84;100379.75;4156395;28;20029;-67
2023/06/08 04:48:33;;;;;;;14.32;7.55;;;;;;;19.69;58.53;100383.25;4130768;28;20124;-67
2023/06/08 04:50:37;;;;;;;10.32;7.85;;;;;;;19.79;57.89;100376.88;4139016;28;20046;-67
2023/06/08 04:52:41;;;;;;;;;;;;;;;19.74;57.90;100370.81;4151126;23;20043;-75
2023/06/08 04:54:46;;;;;;;10.35;8.65;;;;;;;19.77;57.61;100373.41;4146601;28;20498;-75
2023/06/08 04:56:49;;;;;;;7.72;6.57;;;;;;;19.75;58.03;100372.53;4146667;28;20042;-76
2023/06/08 04:58:52;;;;;;;13.18;8.80;;;;;;;19.90;57.64;100371.31;4130860;28;20108;-75
2023/06/08 05:00:57;;;;;;;11.77;8.32;;;;;;;19.90;57.67;100378.38;4130737;28;20146;-74
2023/06/08 05:03:00;;;;;;;14.95;9.15;;;;;;;19.95;57.47;100381.78;4138825;28;20065;-74
2023/06/08 05:05:05;;;;;;;10.98;7.95;;;;;;;19.91;57.71;100374.84;4123585;28;20107;-74
2023/06/08 05:07:08;;;;;;;10.30;8.30;;;;;;;19.95;58.01;100387.91;4126613;28;20042;-74
2023/06/08 05:09:12;;;;;;;10.27;8.00;;;;;;;19.92;58.16;100393.28;4126204;28;20034;-74
2023/06/08 05:11:15;;;;;;;10.48;6.95;;;;;;;20.05;57.59;100396.47;4145071;28;20053;-73
2023/06/08 05:13:18;;;;;;;13.60;7.35;;;;;;;19.99;58.22;100394.84;4143911;28;20168;-73
2023/06/08 05:15:20;;;;;;;11.20;6.55;;;;;;;20.03;58.06;100396.50;4142717;28;20487;-73
2023/06/08 05:17:25;;;;;;;11.30;7.13;;;;;;;20.09;57.67;100395.44;4127166;28;20046;-73
2023/06/08 05:19:28;;;;;;;12.52;7.85;;;;;;;20.16;57.81;100402.31;4127534;28;20124;-74
2023/06/08 05:21:31;;;;;;;9.93;8.40;;;;;;;20.25;56.65;100401.19;4143705;28;20133;-73
2023/06/08 05:23:34;;;;;;;9.70;7.53;;;;;;;20.28;57.07;100394.97;4144387;28;20062;-73
2023/06/08 05:25:37;;;;;;;15.20;8.90;;;;;;;20.35;56.89;100396.53;4139013;28;20042;-73
2023/06/08 05:27:40;;;;;;;10.82;8.73;;;;;;;20.37;56.59;100392.94;4126890;28;20097;-74
2023/06/08 05:29:43;;;;;;;11.55;8.80;;;;;;;20.41;56.35;100396.34;4127578;28;20065;-73
2023/06/08 05:31:46;;;;;;;12.27;7.95;;;;;;;20.41;56.72;100401.63;4144121;28;20045;-74
2023/06/08 05:33:50;;;;;;;10.40;9.00;;;;;;;20.54;55.98;100391.59;4124939;28;20081;-74
2023/06/08 05:35:53;;;;;;;13.68;8.80;;;;;;;20.54;55.99;100396.88;4143321;28;20128;-73
2023/06/08 05:37:56;;;;;;;11.10;8.15;;;;;;;20.46;55.99;100393.59;4143925;28;20045;-74
2023/06/08 05:39:59;;;;;;;10.85;7.70;;;;;;;20.46;56.16;100399.75;4143728;28;20046;-73
2023/06/08 05:42:02;;;;;;;7.93;6.57;;;;;;;20.51;56.56;100397.84;4142767;28;20041;-73
2023/06/08 05:44:05;;;;;;;8.88;6.30;;;;;;;20.60;56.68;100396.72;4126718;28;20039;-74
2023/06/08 05:46:08;;;;;;;10.48;7.20;;;;;;;20.67;56.89;100400.09;4144209;28;20046;-74
2023/06/08 05:48:11;;;;;;;11.25;7.95;;;;;;;20.82;55.74;100402.31;4145287;28;20041;-73
2023/06/08 05:50:15;;;;;;;10.48;7.20;;;;;;;20.83;55.54;100395.22;4127177;28;20038;-74
2023/06/08 05:52:18;;;;;;;8.70;7.28;;;;;;;20.87;56.36;100400.38;4140176;28;20061;-74
2023/06/08 05:54:21;;;;;;;10.10;6.60;;;;;;;20.92;56.95;100395.84;4140800;28;20130;-74
2023/06/08 05:56:25;;;;;;;10.60;6.72;;;;;;;21.04;56.85;100404.28;4144443;28;20388;-73
2023/06/08 05:58:28;;;;;;;9.50;6.28;;;;;;;21.08;57.05;100403.28;4144300;28;20066;-74
2023/06/08 06:00:52;;;;;;;8.40;7.18;;;;;;;21.17;56.35;100395.06;4140991;28;20045;-74
2023/06/08 06:02:55;;;;;;;9.23;7.68;;;;;;;21.31;54.69;100391.16;4127271;28;20495;-74
2023/06/08 06:04:58;;;;;;;9.60;7.97;;;;;;;21.35;54.62;100387.47;4139263;28;20399;-74
2023/06/08 06:07:04;;;;;;;8.52;7.18;;;;;;;21.37;53.95;100388.31;4110415;28;20066;-74
2023/06/08 06:09:07;;;;;;;8.65;7.47;;;;;;;21.39;54.08;100391.75;4144762;28;20049;-74
2023/06/08 06:11:10;;;;;;;8.70;6.90;;;;;;;21.34;54.13;100397.19;4126912;28;20046;-74
2023/06/08 06:13:13;;;;;;;8.70;6.10;;;;;;;21.37;54.44;100398.88;4141462;28;20149;-72
2023/06/08 06:15:16;;;;;;;13.45;7.18;;;;;;;21.41;54.36;100387.28;4144386;28;20046;-73
2023/06/08 06:17:20;;;;;;;12.38;7.40;;;;;;;21.57;53.95;100396.50;4125610;28;20038;-73
2023/06/08 06:19:23;;;;;;;8.80;6.70;;;;;;;21.59;53.96;100397.28;4142111;28;20092;-73
2023/06/08 06:21:26;;;;;;;9.90;7.07;;;;;;;21.59;54.34;100399.94;4142058;28;20034;-76
2023/06/08 06:23:30;;;;;;;9.23;6.85;;;;;;;21.66;54.66;100394.47;4122693;28;20046;-75
2023/06/08 06:25:36;;;;;;;7.30;6.20;;;;;;;21.77;54.34;100398.50;4125962;28;20562;-75
2023/06/08 06:27:40;;;;;;;7.05;6.07;;;;;;;21.85;54.51;100406.16;4124293;28;20099;-75
2023/06/08 06:29:50;;;;;;;12.85;6.45;;;;;;;21.93;54.24;100403.25;4140520;28;20049;-72
2023/06/08 06:31:53;;;;;;;13.15;7.20;;;;;;;21.97;54.45;100405.72;4124681;28;20129;-71
2023/06/08 06:33:56;;;;;;;9.13;6.18;;;;;;;22.06;54.72;100404.56;4144292;28;20406;-64
2023/06/08 06:35:59;;;;;;;8.32;5.43;;;;;;;22.20;54.13;100406.75;4142249;28;20037;-62
2023/06/08 06:38:02;;;;;;;7.88;4.93;;;;;;;22.38;53.51;100415.00;4142541;28;20030;-62
2023/06/08 06:40:08;;;;;;;8.38;5.18;;;;;;;22.53;53.05;100414.44;4140191;28;20487;-63
2023/06/08 06:42:11;;;;;;;6.07;5.25;;;;;;;22.61;52.61;100422.09;4140694;28;20054;-62
2023/06/08 06:44:33;;;;;;;7.25;5.75;;;;;;;22.75;52.30;100416.28;4124336;28;20038;-62
2023/06/08 06:46:35;;;;;;;8.18;6.95;;;;;;;22.83;52.22;100420.38;4140953;28;20618;-62
2023/06/08 06:48:38;;;;;;;8.90;5.97;;;;;;;22.82;51.80;100421.31;4140742;28;20038;-62
2023/06/08 06:50:41;;;;;;;10.25;5.85;;;;;;;22.88;51.90;100430.84;4142405;28;20048;-62
2023/06/08 06:52:44;;;;;;;6.93;5.75;;;;;;;22.94;52.10;100425.31;4141127;28;20423;-62
2023/06/08 06:54:47;;;;;;;9.35;5.80;;;;;;;23.01;51.82;100434.75;4126346;28;20129;-62
2023/06/08 06:56:51;;;;;;;10.77;7.57;;;;;;;23.05;51.07;100434.63;4144117;28;20068;-62
2023/06/08 06:58:56;;;;;;;;;;;;;;;23.00;51.16;100432.16;4143502;28;20041;-62
2023/06/08 07:01:01;;;;;;;12.17;8.73;;;;;;;23.04;51.21;100430.25;4146966;28;19964;-62
2023/06/08 07:03:04;;;;;;;11.77;6.88;;;;;;;23.15;51.13;100433.38;4145344;28;20037;-62
2023/06/08 07:05:10;;;;;;;10.52;7.85;;;;;;;23.21;51.16;100438.44;4143571;28;20381;-62
2023/06/08 07:07:13;;;;;;;16.40;9.52;;;;;;;23.32;51.26;100438.91;4146678;28;20038;-61
2023/06/08 07:09:17;;;;;;;10.93;7.82;;;;;;;23.33;51.20;100437.97;4127324;28;20065;-58
2023/06/08 07:11:20;;;;;;;9.75;8.38;;;;;;;23.40;51.04;100437.72;4145151;28;20056;-60
2023/06/08 07:13:24;;;;;;;9.05;7.85;;;;;;;23.50;50.99;100444.41;4137756;28;20464;-61
2023/06/08 07:15:27;;;;;;;12.18;7.72;;;;;;;23.38;51.09;100442.22;4149249;28;20038;-59
2023/06/08 07:17:30;;;;;;;13.05;8.73;;;;;;;23.41;50.94;100452.72;4149908;28;20487;-61
2023/06/08 07:19:33;;;;;;;9.23;8.00;;;;;;;23.44;51.01;100447.31;4150174;28;20041;-65
2023/06/08 07:21:39;;;;;;;13.35;9.02;;;;;;;23.50;50.73;100447.06;4127326;28;20050;-64
2023/06/08 07:23:57;;;;;;;11.80;7.80;;;;;;;23.55;50.68;100453.03;4133470;28;20089;-61
2023/06/08 07:26:20;;;;;;;11.30;8.20;;;;;;;23.46;50.44;100454.25;4116498;28;20042;-62
2023/06/08 07:28:33;;;;;;;11.65;6.63;;;;;;;23.51;50.48;100451.44;4131691;28;20129;-64
2023/06/08 07:30:37;;;;;;;13.75;8.25;;;;;;;23.60;50.40;100458.19;4145768;28;20902;-62
2023/06/08 07:32:43;;;;;;;8.15;6.55;;;;;;;23.60;50.09;100461.69;4141448;28;20447;-61
2023/06/08 07:34:46;;;;;;;12.75;8.73;;;;;;;23.55;50.54;100460.13;4142525;28;20038;-62
2023/06/08 07:36:49;;;;;;;11.60;8.25;;;;;;;23.57;50.28;100461.81;4125713;28;20046;-61
2023/06/08 07:38:51;;;;;;;9.18;6.88;;;;;;;23.63;50.36;100463.34;4145498;28;20051;-61
2023/06/08 07:40:54;;;;;;;10.20;7.55;;;;;;;23.71;50.38;100455.94;4141757;28;20042;-61
2023/06/08 07:42:57;;;;;;;11.30;8.75;;;;;;;23.81;50.04;100453.78;4147001;28;20509;-61
2023/06/08 07:45:01;;;;;;;9.73;7.07;;;;;;;23.82;50.10;100451.06;4126633;28;20080;-62
2023/06/08 07:47:05;;;;;;;;;;;;;;;23.85;50.29;100450.06;4143908;28;20418;-62
2023/06/08 07:49:08;;;;;;;10.15;6.72;;;;;;;23.86;49.97;100444.72;4124365;28;19929;-62
2023/06/08 07:51:11;;;;;;;12.48;8.70;;;;;;;23.96;49.85;100447.88;4128360;28;20035;-62
2023/06/08 07:53:14;;;;;;;8.95;6.78;;;;;;;23.96;49.82;100449.66;4125272;28;20466;-62
2023/06/08 07:55:17;;;;;;;12.32;7.05;;;;;;;24.07;49.38;100446.56;4142049;28;20064;-61
2023/06/08 07:57:20;;;;;;;11.40;8.10;;;;;;;24.15;49.22;100445.31;4145573;28;20487;-62
2023/06/08 07:59:23;;;;;;;17.20;8.55;;;;;;;24.29;48.64;100435.88;4140801;28;20577;-61
2023/06/08 08:01:29;;;;;;;13.15;7.88;;;;;;;24.32;49.05;100433.09;4132004;28;20046;-61
2023/06/08 08:03:36;;;;;;;;;;;;;;;24.28;49.20;100429.66;4140638;28;20487;-61
2023/06/08 08:05:39;;;;;;;9.38;7.95;;;;;;;24.36;48.75;100421.41;4143356;28;20339;-62
2023/06/08 08:07:42;;;;;;;10.52;7.50;;;;;;;24.32;48.96;100425.97;4142734;28;20228;-61
2023/06/08 08:09:45;;;;;;;11.07;7.30;;;;;;;24.11;49.42;100421.56;4121637;28;20089;-61
2023/06/08 08:11:48;;;;;;;10.02;6.05;;;;;;;23.92;49.73;100427.69;4142491;28;20417;-61
2023/06/08 08:13:51;;;;;;;7.70;6.05;;;;;;;23.78;50.41;100430.00;4124448;28;20042;-61
2023/06/08 08:15:54;;;;;;;10.18;7.22;;;;;;;23.80;49.93;100421.06;4148932;28;20042;-61
2023/06/08 08:17:58;;;;;;;7.53;5.95;;;;;;;23.83;50.10;100422.69;4148913;28;20125;-61
2023/06/08 08:20:00;;;;;;;;;;;;;;;23.96;49.83;100418.66;4122411;28;20070;-61
2023/06/08 08:22:05;;;;;;;9.93;7.35;;;;;;;23.92;48.86;100417.06;4115368;28;20403;-61
2023/06/08 08:24:08;;;;;;;18.35;8.85;;;;;;;24.25;47.57;100411.22;4132251;28;20077;-61
2023/06/08 08:26:11;;;;;;;10.38;8.85;;;;;;;24.29;46.81;100404.00;4132659;28;20364;-62
2023/06/08 08:28:14;;;;;;;11.55;6.65;;;;;;;24.25;47.77;100411.22;4132568;28;20038;-61
2023/06/08 08:30:18;;;;;;;8.27;5.85;;;;;;;24.29;48.12;100406.66;4132404;28;20053;-62
2023/06/08 08:32:20;;;;;;;9.35;5.82;;;;;;;24.46;48.81;100412.06;4142964;28;20495;-62
2023/06/08 08:34:25;;;;;;;7.25;6.35;;;;;;;24.62;48.58;100409.63;4147202;28;20072;-62
2023/06/08 08:36:27;;;;;;;8.70;6.05;;;;;;;24.72;47.81;100410.06;4147423;28;20499;-62
2023/06/08 08:38:30;;;;;;;10.10;7.53;;;;;;;24.83;47.18;100410.44;4131192;28;20089;-62
2023/06/08 08:40:33;;;;;;;9.85;8.40;;;;;;;24.99;46.39;100405.28;4130970;28;20081;-62
2023/06/08 08:42:42;;;;;;;9.25;7.55;;;;;;;25.05;46.30;100406.78;4130178;28;20076;-62
2023/06/08 08:44:47;;;;;;;9.38;7.70;;;;;;;25.13;45.81;100403.75;4144650;28;20491;-62
2023/06/08 08:46:50;;;;;;;8.43;7.00;;;;;;;25.06;45.52;100404.06;4148673;28;20053;-62
2023/06/08 08:48:58;;;;;;;6.82;5.18;;;;;;;24.89;46.38;100398.66;4117786;28;20042;-62
2023/06/08 08:51:04;;;;;;;10.70;7.80;;;;;;;25.04;46.41;100399.72;4114854;28;20074;-62
2023/06/08 08:53:09;;;;;;;10.27;6.82;;;;;;;25.08;45.88;100396.84;4132087;28;20042;-62
2023/06/08 08:55:13;;;;;;;10.00;7.07;;;;;;;25.12;46.19;100400.25;4114983;28;20444;-62
2023/06/08 08:57:36;;;;;;;10.25;6.75;;;;;;;25.30;45.91;100394.97;4114725;28;20047;-62
2023/06/08 08:59:40;;;;;;;7.50;6.35;;;;;;;25.28;45.23;100387.06;4130844;28;20146;-62
2023/06/08 09:01:43;;;;;;;;;;;;;;;25.36;45.38;100384.91;4132313;28;20471;-62
2023/06/08 09:03:50;;;;;;;12.80;7.07;;;;;;;25.60;44.53;100388.16;4142902;28;20290;-62
2023/06/08 09:05:53;;;;;;;8.38;5.88;;;;;;;25.63;44.64;100383.63;4146456;28;20048;-62
2023/06/08 09:07:58;;;;;;;8.75;6.95;;;;;;;25.57;44.36;100375.03;4147923;28;20068;-62
2023/06/08 09:10:15;;;;;;;7.85;6.20;;;;;;;25.68;44.71;100378.94;4130801;28;20546;-62
2023/06/08 09:12:18;;;;;;;7.97;6.60;;;;;;;25.93;43.94;100373.22;4130675;28;20046;-61
2023/06/08 09:14:21;;;;;;;8.30;6.30;;;;;;;26.02;42.50;100366.59;4138060;28;20050;-61
2023/06/08 09:16:24;;;;;;;8.95;6.20;;;;;;;25.96;41.72;100367.72;4147830;28;20595;-63
2023/06/08 09:18:27;;;;;;;6.90;5.57;;;;;;;25.86;41.88;100372.69;4147823;28;20467;-62
2023/06/08 09:20:32;;;;;;;8.23;5.43;;;;;;;25.91;42.64;100370.63;4130506;28;20042;-63
2023/06/08 09:22:36;;;;;;;7.38;5.05;;;;;;;26.13;41.13;100374.91;4147844;28;20041;-62
2023/06/08 09:24:49;;;;;;;7.07;4.68;;;;;;;26.05;40.51;100367.31;4130216;28;20100;-62
2023/06/08 09:26:55;;;;;;;8.80;5.25;;;;;;;26.10;40.92;100369.72;4146781;28;20042;-63
2023/06/08 09:29:00;;;;;;;8.90;6.00;;;;;;;26.32;41.55;100364.13;4130310;28;20062;-63
2023/06/08 09:31:09;;;;;;;;;;;;;;;26.45;41.84;100362.53;4146699;28;20100;-62
2023/06/08 09:33:23;;;;;;;11.05;6.10;;;;;;;26.37;41.40;100358.53;4129510;28;19925;-63
2023/06/08 09:35:26;;;;;;;6.75;5.15;;;;;;;26.39;41.02;100362.84;4140990;28;20100;-63
2023/06/08 09:37:30;;;;;;;5.22;4.30;;;;;;;26.37;41.45;100350.56;4147776;28;20474;-63
2023/06/08 09:39:39;;;;;;;7.13;5.15;;;;;;;26.62;39.43;100355.41;4147497;28;20038;-64